sensor_id;sensor_type;location;lat;lon;timestamp;P1;durP1;ratioP1;P2;durP2;ratioP2
7308;SDS011;3695;53.330;9.876;2022-07-22T00:02:00;50.38;;;32.97;;
7308;SDS011;3695;53.330;9.876;2022-07-22T00:04:26;49.65;;;31.65;;
7308;SDS011;3695;53.330;9.876;2022-07-22T00:06:53;44.33;;;29.38;;
7308;SDS011;3695;53.330;9.876;2022-07-22T00:09:19;48.30;;;30.57;;
7308;SDS011;3695;53.330;9.876;2022-07-22T00:11:46;53.80;;;31.23;;
7308;SDS011;3695;53.330;9.876;2022-07-22T00:14:14;45.08;;;30.88;;
7308;SDS011;3695;53.330;9.876;2022-07-22T00:16:40;50.13;;;30.57;;
7308;SDS011;3695;53.330;9.876;2022-07-22T00:19:07;49.75;;;31.88;;
7308;SDS011;3695;53.330;9.876;2022-07-22T00:21:34;48.63;;;31.42;;
7308;SDS011;3695;53.330;9.876;2022-07-22T00:24:00;46.28;;;30.90;;
7308;SDS011;3695;53.330;9.876;2022-07-22T00:26:27;50.83;;;32.33;;
7308;SDS011;3695;53.330;9.876;2022-07-22T00:28:53;54.70;;;34.90;;
7308;SDS011;3695;53.330;9.876;2022-07-22T00:31:21;43.93;;;28.47;;
7308;SDS011;3695;53.330;9.876;2022-07-22T00:33:48;29.37;;;18.93;;
7308;SDS011;3695;53.330;9.876;2022-07-22T00:36:15;23.80;;;15.67;;
7308;SDS011;3695;53.330;9.876;2022-07-22T00:38:41;15.23;;;10.27;;
7308;SDS011;3695;53.330;9.876;2022-07-22T00:41:08;10.47;;;7.97;;
7308;SDS011;3695;53.330;9.876;2022-07-22T00:46:22;6.03;;;3.90;;
7308;SDS011;3695;53.330;9.876;2022-07-22T00:48:49;6.00;;;2.67;;
7308;SDS011;3695;53.330;9.876;2022-07-22T00:51:16;5.77;;;3.20;;
7308;SDS011;3695;53.330;9.876;2022-07-22T00:53:44;4.50;;;2.57;;
7308;SDS011;3695;53.330;9.876;2022-07-22T00:56:11;5.47;;;2.17;;
7308;SDS011;3695;53.330;9.876;2022-07-22T00:58:38;3.97;;;1.70;;
7308;SDS011;3695;53.330;9.876;2022-07-22T01:01:05;3.10;;;1.57;;
7308;SDS011;3695;53.330;9.876;2022-07-22T01:03:33;4.37;;;1.57;;
7308;SDS011;3695;53.330;9.876;2022-07-22T01:05:59;3.23;;;1.40;;
7308;SDS011;3695;53.330;9.876;2022-07-22T01:08:26;5.33;;;1.40;;
7308;SDS011;3695;53.330;9.876;2022-07-22T01:10:52;3.93;;;1.47;;
7308;SDS011;3695;53.330;9.876;2022-07-22T01:13:19;1.20;;;0.73;;
7308;SDS011;3695;53.330;9.876;2022-07-22T01:15:45;2.23;;;0.77;;
7308;SDS011;3695;53.330;9.876;2022-07-22T01:18:12;1.83;;;0.80;;
7308;SDS011;3695;53.330;9.876;2022-07-22T01:20:40;1.30;;;0.83;;
7308;SDS011;3695;53.330;9.876;2022-07-22T01:23:07;2.20;;;0.70;;
7308;SDS011;3695;53.330;9.876;2022-07-22T01:25:33;0.70;;;0.67;;
7308;SDS011;3695;53.330;9.876;2022-07-22T01:28:00;2.70;;;0.90;;
7308;SDS011;3695;53.330;9.876;2022-07-22T01:30:27;1.67;;;0.70;;
7308;SDS011;3695;53.330;9.876;2022-07-22T01:32:53;2.10;;;0.97;;
7308;SDS011;3695;53.330;9.876;2022-07-22T01:35:20;1.30;;;0.97;;
7308;SDS011;3695;53.330;9.876;2022-07-22T01:37:48;3.13;;;1.30;;
7308;SDS011;3695;53.330;9.876;2022-07-22T01:40:14;3.63;;;1.80;;
7308;SDS011;3695;53.330;9.876;2022-07-22T01:42:41;2.83;;;1.90;;
7308;SDS011;3695;53.330;9.876;2022-07-22T01:45:08;3.00;;;2.07;;
7308;SDS011;3695;53.330;9.876;2022-07-22T01:47:35;4.47;;;2.27;;
7308;SDS011;3695;53.330;9.876;2022-07-22T01:50:02;3.67;;;2.27;;
7308;SDS011;3695;53.330;9.876;2022-07-22T01:52:29;5.17;;;2.57;;
7308;SDS011;3695;53.330;9.876;2022-07-22T01:54:57;5.37;;;2.50;;
7308;SDS011;3695;53.330;9.876;2022-07-22T01:57:24;4.50;;;2.30;;
7308;SDS011;3695;53.330;9.876;2022-07-22T02:00:00;5.40;;;2.90;;
7308;SDS011;3695;53.330;9.876;2022-07-22T02:02:27;5.30;;;3.10;;
7308;SDS011;3695;53.330;9.876;2022-07-22T02:04:53;5.73;;;4.13;;
7308;SDS011;3695;53.330;9.876;2022-07-22T02:07:22;7.30;;;4.53;;
7308;SDS011;3695;53.330;9.876;2022-07-22T02:09:49;9.07;;;4.70;;
7308;SDS011;3695;53.330;9.876;2022-07-22T02:12:17;9.43;;;5.03;;
7308;SDS011;3695;53.330;9.876;2022-07-22T02:14:44;8.70;;;5.00;;
7308;SDS011;3695;53.330;9.876;2022-07-22T02:17:11;10.33;;;5.43;;
7308;SDS011;3695;53.330;9.876;2022-07-22T02:19:38;9.57;;;4.97;;
7308;SDS011;3695;53.330;9.876;2022-07-22T02:22:04;8.70;;;4.50;;
7308;SDS011;3695;53.330;9.876;2022-07-22T02:24:31;10.37;;;5.20;;
7308;SDS011;3695;53.330;9.876;2022-07-22T02:26:58;9.70;;;5.67;;
7308;SDS011;3695;53.330;9.876;2022-07-22T02:29:26;10.47;;;5.53;;
7308;SDS011;3695;53.330;9.876;2022-07-22T02:31:53;10.07;;;5.80;;
7308;SDS011;3695;53.330;9.876;2022-07-22T02:34:19;10.53;;;5.93;;
7308;SDS011;3695;53.330;9.876;2022-07-22T02:36:46;10.70;;;5.40;;
7308;SDS011;3695;53.330;9.876;2022-07-22T02:39:12;6.17;;;5.13;;
7308;SDS011;3695;53.330;9.876;2022-07-22T02:41:39;10.27;;;5.87;;
7308;SDS011;3695;53.330;9.876;2022-07-22T02:44:06;8.40;;;4.87;;
7308;SDS011;3695;53.330;9.876;2022-07-22T02:46:36;8.63;;;4.67;;
7308;SDS011;3695;53.330;9.876;2022-07-22T02:49:03;7.90;;;4.63;;
7308;SDS011;3695;53.330;9.876;2022-07-22T02:51:30;7.63;;;5.33;;
7308;SDS011;3695;53.330;9.876;2022-07-22T02:53:57;9.07;;;4.53;;
7308;SDS011;3695;53.330;9.876;2022-07-22T02:56:24;11.13;;;4.50;;
7308;SDS011;3695;53.330;9.876;2022-07-22T02:58:50;10.13;;;4.60;;
7308;SDS011;3695;53.330;9.876;2022-07-22T03:01:18;13.60;;;5.50;;
7308;SDS011;3695;53.330;9.876;2022-07-22T03:03:46;12.17;;;5.73;;
7308;SDS011;3695;53.330;9.876;2022-07-22T03:06:13;11.63;;;5.90;;
7308;SDS011;3695;53.330;9.876;2022-07-22T03:08:40;9.80;;;6.00;;
7308;SDS011;3695;53.330;9.876;2022-07-22T03:11:07;12.37;;;6.70;;
7308;SDS011;3695;53.330;9.876;2022-07-22T03:13:33;11.23;;;5.57;;
7308;SDS011;3695;53.330;9.876;2022-07-22T03:16:00;9.07;;;6.20;;
7308;SDS011;3695;53.330;9.876;2022-07-22T03:18:26;13.17;;;6.27;;
7308;SDS011;3695;53.330;9.876;2022-07-22T03:20:54;15.00;;;6.80;;
7308;SDS011;3695;53.330;9.876;2022-07-22T03:23:23;9.53;;;6.83;;
7308;SDS011;3695;53.330;9.876;2022-07-22T03:25:50;10.70;;;6.73;;
7308;SDS011;3695;53.330;9.876;2022-07-22T03:28:16;12.80;;;6.87;;
7308;SDS011;3695;53.330;9.876;2022-07-22T03:30:43;15.03;;;7.63;;
7308;SDS011;3695;53.330;9.876;2022-07-22T03:33:09;13.73;;;7.43;;
7308;SDS011;3695;53.330;9.876;2022-07-22T03:35:36;13.70;;;6.80;;
7308;SDS011;3695;53.330;9.876;2022-07-22T03:38:03;14.37;;;7.07;;
7308;SDS011;3695;53.330;9.876;2022-07-22T03:40:30;16.47;;;6.93;;
7308;SDS011;3695;53.330;9.876;2022-07-22T03:42:57;9.97;;;5.83;;
7308;SDS011;3695;53.330;9.876;2022-07-22T03:45:23;13.93;;;6.27;;
7308;SDS011;3695;53.330;9.876;2022-07-22T03:47:50;16.83;;;5.70;;
7308;SDS011;3695;53.330;9.876;2022-07-22T03:50:19;12.80;;;5.00;;
7308;SDS011;3695;53.330;9.876;2022-07-22T03:52:45;11.93;;;5.33;;
7308;SDS011;3695;53.330;9.876;2022-07-22T03:55:13;10.47;;;5.27;;
7308;SDS011;3695;53.330;9.876;2022-07-22T03:57:40;14.03;;;5.43;;
7308;SDS011;3695;53.330;9.876;2022-07-22T04:00:07;12.33;;;5.33;;
7308;SDS011;3695;53.330;9.876;2022-07-22T04:02:34;11.27;;;4.93;;
7308;SDS011;3695;53.330;9.876;2022-07-22T04:05:00;11.73;;;4.90;;
7308;SDS011;3695;53.330;9.876;2022-07-22T04:07:27;15.20;;;5.57;;
7308;SDS011;3695;53.330;9.876;2022-07-22T04:09:53;10.50;;;4.30;;
7308;SDS011;3695;53.330;9.876;2022-07-22T04:12:31;13.03;;;4.30;;
7308;SDS011;3695;53.330;9.876;2022-07-22T04:14:58;10.53;;;4.60;;
7308;SDS011;3695;53.330;9.876;2022-07-22T04:17:24;9.37;;;4.10;;
7308;SDS011;3695;53.330;9.876;2022-07-22T04:19:51;9.37;;;3.80;;
7308;SDS011;3695;53.330;9.876;2022-07-22T04:22:18;12.47;;;5.00;;
7308;SDS011;3695;53.330;9.876;2022-07-22T04:24:44;9.13;;;3.57;;
7308;SDS011;3695;53.330;9.876;2022-07-22T04:27:11;7.73;;;4.03;;
7308;SDS011;3695;53.330;9.876;2022-07-22T04:29:39;11.17;;;4.47;;
7308;SDS011;3695;53.330;9.876;2022-07-22T04:32:05;10.47;;;4.17;;
7308;SDS011;3695;53.330;9.876;2022-07-22T04:34:32;12.87;;;4.23;;
7308;SDS011;3695;53.330;9.876;2022-07-22T04:36:59;9.50;;;4.30;;
7308;SDS011;3695;53.330;9.876;2022-07-22T04:39:25;8.60;;;3.80;;
7308;SDS011;3695;53.330;9.876;2022-07-22T04:41:52;7.10;;;4.80;;
7308;SDS011;3695;53.330;9.876;2022-07-22T04:44:18;10.37;;;4.00;;
7308;SDS011;3695;53.330;9.876;2022-07-22T04:46:47;12.30;;;4.67;;
7308;SDS011;3695;53.330;9.876;2022-07-22T04:49:13;7.77;;;4.13;;
7308;SDS011;3695;53.330;9.876;2022-07-22T04:51:40;11.80;;;4.43;;
7308;SDS011;3695;53.330;9.876;2022-07-22T04:54:06;12.67;;;4.83;;
7308;SDS011;3695;53.330;9.876;2022-07-22T04:56:33;14.83;;;5.07;;
7308;SDS011;3695;53.330;9.876;2022-07-22T04:58:59;12.97;;;4.33;;
7308;SDS011;3695;53.330;9.876;2022-07-22T05:01:25;16.20;;;4.93;;
7308;SDS011;3695;53.330;9.876;2022-07-22T05:03:53;9.77;;;4.87;;
7308;SDS011;3695;53.330;9.876;2022-07-22T05:06:20;8.17;;;4.80;;
7308;SDS011;3695;53.330;9.876;2022-07-22T05:08:46;14.47;;;5.77;;
7308;SDS011;3695;53.330;9.876;2022-07-22T05:11:13;11.87;;;4.63;;
7308;SDS011;3695;53.330;9.876;2022-07-22T05:13:39;11.67;;;5.80;;
7308;SDS011;3695;53.330;9.876;2022-07-22T05:16:06;6.90;;;4.10;;
7308;SDS011;3695;53.330;9.876;2022-07-22T05:18:33;11.47;;;4.27;;
7308;SDS011;3695;53.330;9.876;2022-07-22T05:21:02;7.90;;;4.00;;
7308;SDS011;3695;53.330;9.876;2022-07-22T05:23:29;9.53;;;3.60;;
7308;SDS011;3695;53.330;9.876;2022-07-22T05:25:56;6.60;;;3.73;;
7308;SDS011;3695;53.330;9.876;2022-07-22T05:28:23;6.93;;;3.93;;
7308;SDS011;3695;53.330;9.876;2022-07-22T05:30:50;6.53;;;3.87;;
7308;SDS011;3695;53.330;9.876;2022-07-22T05:33:16;14.07;;;4.97;;
7308;SDS011;3695;53.330;9.876;2022-07-22T05:35:43;10.57;;;4.43;;
7308;SDS011;3695;53.330;9.876;2022-07-22T05:38:10;12.30;;;4.97;;
7308;SDS011;3695;53.330;9.876;2022-07-22T05:40:37;15.47;;;4.07;;
7308;SDS011;3695;53.330;9.876;2022-07-22T05:43:04;7.33;;;4.07;;
7308;SDS011;3695;53.330;9.876;2022-07-22T05:45:30;9.07;;;3.70;;
7308;SDS011;3695;53.330;9.876;2022-07-22T05:47:56;8.40;;;3.70;;
7308;SDS011;3695;53.330;9.876;2022-07-22T05:50:23;10.73;;;4.33;;
7308;SDS011;3695;53.330;9.876;2022-07-22T05:52:50;9.67;;;4.03;;
7308;SDS011;3695;53.330;9.876;2022-07-22T05:55:17;9.03;;;4.07;;
7308;SDS011;3695;53.330;9.876;2022-07-22T05:57:44;9.50;;;4.10;;
7308;SDS011;3695;53.330;9.876;2022-07-22T06:00:11;10.03;;;4.30;;
7308;SDS011;3695;53.330;9.876;2022-07-22T06:02:38;10.33;;;4.27;;
7308;SDS011;3695;53.330;9.876;2022-07-22T06:05:04;8.37;;;3.97;;
7308;SDS011;3695;53.330;9.876;2022-07-22T06:07:31;14.77;;;4.13;;
7308;SDS011;3695;53.330;9.876;2022-07-22T06:09:57;8.70;;;3.93;;
7308;SDS011;3695;53.330;9.876;2022-07-22T06:12:25;11.17;;;3.80;;
7308;SDS011;3695;53.330;9.876;2022-07-22T06:14:51;12.90;;;4.07;;
7308;SDS011;3695;53.330;9.876;2022-07-22T06:17:18;10.83;;;4.47;;
7308;SDS011;3695;53.330;9.876;2022-07-22T06:19:44;12.30;;;4.30;;
7308;SDS011;3695;53.330;9.876;2022-07-22T06:22:11;9.70;;;3.97;;
7308;SDS011;3695;53.330;9.876;2022-07-22T06:24:37;12.33;;;4.10;;
7308;SDS011;3695;53.330;9.876;2022-07-22T06:27:04;11.00;;;4.13;;
7308;SDS011;3695;53.330;9.876;2022-07-22T06:29:31;14.43;;;5.07;;
7308;SDS011;3695;53.330;9.876;2022-07-22T06:31:58;14.63;;;4.27;;
7308;SDS011;3695;53.330;9.876;2022-07-22T06:34:24;23.50;;;4.60;;
7308;SDS011;3695;53.330;9.876;2022-07-22T06:36:51;10.80;;;3.90;;
7308;SDS011;3695;53.330;9.876;2022-07-22T06:39:17;11.30;;;4.00;;
7308;SDS011;3695;53.330;9.876;2022-07-22T06:41:44;11.77;;;4.97;;
7308;SDS011;3695;53.330;9.876;2022-07-22T06:44:10;11.63;;;3.93;;
7308;SDS011;3695;53.330;9.876;2022-07-22T06:46:38;13.93;;;3.73;;
7308;SDS011;3695;53.330;9.876;2022-07-22T06:49:04;16.00;;;4.10;;
7308;SDS011;3695;53.330;9.876;2022-07-22T06:51:31;17.17;;;4.83;;
7308;SDS011;3695;53.330;9.876;2022-07-22T06:53:58;17.67;;;4.73;;
7308;SDS011;3695;53.330;9.876;2022-07-22T06:56:25;11.40;;;5.10;;
7308;SDS011;3695;53.330;9.876;2022-07-22T06:58:52;14.10;;;4.27;;
7308;SDS011;3695;53.330;9.876;2022-07-22T07:01:18;16.33;;;3.87;;
7308;SDS011;3695;53.330;9.876;2022-07-22T07:03:46;9.03;;;3.93;;
7308;SDS011;3695;53.330;9.876;2022-07-22T07:06:12;16.93;;;4.20;;
7308;SDS011;3695;53.330;9.876;2022-07-22T07:08:39;15.10;;;5.13;;
7308;SDS011;3695;53.330;9.876;2022-07-22T07:11:06;14.00;;;4.23;;
7308;SDS011;3695;53.330;9.876;2022-07-22T07:13:33;14.27;;;6.43;;
7308;SDS011;3695;53.330;9.876;2022-07-22T07:15:59;15.93;;;3.60;;
7308;SDS011;3695;53.330;9.876;2022-07-22T07:18:26;13.17;;;3.93;;
7308;SDS011;3695;53.330;9.876;2022-07-22T07:20:54;10.13;;;3.70;;
7308;SDS011;3695;53.330;9.876;2022-07-22T07:23:20;14.97;;;3.93;;
7308;SDS011;3695;53.330;9.876;2022-07-22T07:25:47;14.37;;;4.67;;
7308;SDS011;3695;53.330;9.876;2022-07-22T07:28:14;17.37;;;4.60;;
7308;SDS011;3695;53.330;9.876;2022-07-22T07:30:41;18.57;;;3.80;;
7308;SDS011;3695;53.330;9.876;2022-07-22T07:33:07;14.97;;;4.23;;
7308;SDS011;3695;53.330;9.876;2022-07-22T07:35:34;16.50;;;5.47;;
7308;SDS011;3695;53.330;9.876;2022-07-22T07:38:01;20.70;;;3.80;;
7308;SDS011;3695;53.330;9.876;2022-07-22T07:40:28;12.33;;;3.70;;
7308;SDS011;3695;53.330;9.876;2022-07-22T07:42:54;17.30;;;4.83;;
7308;SDS011;3695;53.330;9.876;2022-07-22T07:45:21;10.70;;;3.33;;
7308;SDS011;3695;53.330;9.876;2022-07-22T07:47:47;15.83;;;4.23;;
7308;SDS011;3695;53.330;9.876;2022-07-22T07:50:14;11.87;;;3.63;;
7308;SDS011;3695;53.330;9.876;2022-07-22T07:52:41;6.57;;;3.60;;
7308;SDS011;3695;53.330;9.876;2022-07-22T07:55:11;11.40;;;4.90;;
7308;SDS011;3695;53.330;9.876;2022-07-22T07:57:38;14.70;;;4.80;;
7308;SDS011;3695;53.330;9.876;2022-07-22T08:00:05;13.60;;;5.70;;
7308;SDS011;3695;53.330;9.876;2022-07-22T08:02:34;11.10;;;4.13;;
7308;SDS011;3695;53.330;9.876;2022-07-22T08:05:01;11.13;;;4.30;;
7308;SDS011;3695;53.330;9.876;2022-07-22T08:07:28;14.07;;;5.10;;
7308;SDS011;3695;53.330;9.876;2022-07-22T08:09:55;15.90;;;7.00;;
7308;SDS011;3695;53.330;9.876;2022-07-22T08:12:23;14.33;;;4.50;;
7308;SDS011;3695;53.330;9.876;2022-07-22T08:14:49;12.77;;;5.77;;
7308;SDS011;3695;53.330;9.876;2022-07-22T08:17:15;17.40;;;4.20;;
7308;SDS011;3695;53.330;9.876;2022-07-22T08:19:42;11.23;;;3.80;;
7308;SDS011;3695;53.330;9.876;2022-07-22T08:22:08;13.60;;;3.40;;
7308;SDS011;3695;53.330;9.876;2022-07-22T08:24:35;11.83;;;3.13;;
7308;SDS011;3695;53.330;9.876;2022-07-22T08:27:02;7.33;;;3.23;;
7308;SDS011;3695;53.330;9.876;2022-07-22T08:29:30;9.43;;;3.37;;
7308;SDS011;3695;53.330;9.876;2022-07-22T08:31:57;13.37;;;3.57;;
7308;SDS011;3695;53.330;9.876;2022-07-22T08:34:23;10.97;;;3.20;;
7308;SDS011;3695;53.330;9.876;2022-07-22T08:36:49;11.70;;;3.00;;
7308;SDS011;3695;53.330;9.876;2022-07-22T08:39:16;8.60;;;2.40;;
7308;SDS011;3695;53.330;9.876;2022-07-22T08:41:42;8.37;;;2.83;;
7308;SDS011;3695;53.330;9.876;2022-07-22T08:44:09;7.13;;;2.87;;
7308;SDS011;3695;53.330;9.876;2022-07-22T08:46:37;9.43;;;2.77;;
7308;SDS011;3695;53.330;9.876;2022-07-22T08:49:04;7.57;;;2.40;;
7308;SDS011;3695;53.330;9.876;2022-07-22T08:51:31;8.70;;;2.53;;
7308;SDS011;3695;53.330;9.876;2022-07-22T08:53:59;11.63;;;2.60;;
7308;SDS011;3695;53.330;9.876;2022-07-22T08:56:25;9.73;;;2.90;;
7308;SDS011;3695;53.330;9.876;2022-07-22T08:58:52;10.90;;;2.57;;
7308;SDS011;3695;53.330;9.876;2022-07-22T09:01:19;5.93;;;2.60;;
7308;SDS011;3695;53.330;9.876;2022-07-22T09:03:48;5.77;;;2.27;;
7308;SDS011;3695;53.330;9.876;2022-07-22T09:06:15;7.67;;;2.70;;
7308;SDS011;3695;53.330;9.876;2022-07-22T09:08:55;9.20;;;2.60;;
7308;SDS011;3695;53.330;9.876;2022-07-22T09:11:24;11.93;;;2.53;;
7308;SDS011;3695;53.330;9.876;2022-07-22T09:13:53;5.03;;;2.10;;
7308;SDS011;3695;53.330;9.876;2022-07-22T09:19:06;4.67;;;1.93;;
7308;SDS011;3695;53.330;9.876;2022-07-22T09:21:34;7.23;;;2.40;;
7308;SDS011;3695;53.330;9.876;2022-07-22T09:24:02;7.17;;;2.40;;
7308;SDS011;3695;53.330;9.876;2022-07-22T09:26:30;7.83;;;2.87;;
7308;SDS011;3695;53.330;9.876;2022-07-22T09:28:58;8.43;;;2.30;;
7308;SDS011;3695;53.330;9.876;2022-07-22T09:31:24;10.27;;;2.83;;
7308;SDS011;3695;53.330;9.876;2022-07-22T09:33:52;8.53;;;2.47;;
7308;SDS011;3695;53.330;9.876;2022-07-22T09:36:20;8.63;;;2.30;;
7308;SDS011;3695;53.330;9.876;2022-07-22T09:38:47;5.47;;;1.87;;
7308;SDS011;3695;53.330;9.876;2022-07-22T09:41:14;6.93;;;2.10;;
7308;SDS011;3695;53.330;9.876;2022-07-22T09:43:40;4.83;;;2.33;;
7308;SDS011;3695;53.330;9.876;2022-07-22T09:46:07;6.93;;;2.00;;
7308;SDS011;3695;53.330;9.876;2022-07-22T09:48:35;5.47;;;2.53;;
7308;SDS011;3695;53.330;9.876;2022-07-22T09:51:02;13.67;;;2.30;;
7308;SDS011;3695;53.330;9.876;2022-07-22T09:53:33;7.03;;;2.07;;
7308;SDS011;3695;53.330;9.876;2022-07-22T09:56:02;6.83;;;2.40;;
7308;SDS011;3695;53.330;9.876;2022-07-22T09:58:30;4.60;;;2.07;;
7308;SDS011;3695;53.330;9.876;2022-07-22T10:00:58;8.50;;;2.87;;
7308;SDS011;3695;53.330;9.876;2022-07-22T10:03:27;9.70;;;2.60;;
7308;SDS011;3695;53.330;9.876;2022-07-22T10:05:55;7.43;;;3.00;;
7308;SDS011;3695;53.330;9.876;2022-07-22T10:08:23;5.43;;;2.47;;
7308;SDS011;3695;53.330;9.876;2022-07-22T10:10:53;6.10;;;3.10;;
7308;SDS011;3695;53.330;9.876;2022-07-22T10:13:24;9.77;;;2.50;;
7308;SDS011;3695;53.330;9.876;2022-07-22T10:15:51;10.87;;;2.83;;
7308;SDS011;3695;53.330;9.876;2022-07-22T10:18:19;6.07;;;2.80;;
7308;SDS011;3695;53.330;9.876;2022-07-22T10:20:46;8.37;;;2.53;;
7308;SDS011;3695;53.330;9.876;2022-07-22T10:23:13;7.32;;;3.03;;
7308;SDS011;3695;53.330;9.876;2022-07-22T10:25:51;5.97;;;2.30;;
7308;SDS011;3695;53.330;9.876;2022-07-22T10:28:23;6.03;;;2.30;;
7308;SDS011;3695;53.330;9.876;2022-07-22T10:30:51;7.22;;;2.47;;
7308;SDS011;3695;53.330;9.876;2022-07-22T10:33:19;5.27;;;2.10;;
7308;SDS011;3695;53.330;9.876;2022-07-22T10:35:53;5.75;;;2.10;;
7308;SDS011;3695;53.330;9.876;2022-07-22T10:38:22;6.00;;;2.55;;
7308;SDS011;3695;53.330;9.876;2022-07-22T10:40:50;4.33;;;2.00;;
7308;SDS011;3695;53.330;9.876;2022-07-22T10:43:21;6.88;;;2.10;;
7308;SDS011;3695;53.330;9.876;2022-07-22T10:45:49;8.03;;;1.90;;
7308;SDS011;3695;53.330;9.876;2022-07-22T10:48:18;4.28;;;1.90;;
7308;SDS011;3695;53.330;9.876;2022-07-22T10:50:47;4.57;;;2.25;;
7308;SDS011;3695;53.330;9.876;2022-07-22T10:53:17;5.43;;;2.42;;
7308;SDS011;3695;53.330;9.876;2022-07-22T10:56:00;8.30;;;2.90;;
7308;SDS011;3695;53.330;9.876;2022-07-22T11:01:12;7.45;;;1.75;;
7308;SDS011;3695;53.330;9.876;2022-07-22T11:03:41;4.00;;;2.20;;
7308;SDS011;3695;53.330;9.876;2022-07-22T11:06:12;7.47;;;2.27;;
7308;SDS011;3695;53.330;9.876;2022-07-22T11:08:44;6.47;;;2.23;;
7308;SDS011;3695;53.330;9.876;2022-07-22T11:11:14;5.23;;;2.10;;
7308;SDS011;3695;53.330;9.876;2022-07-22T11:13:41;3.53;;;2.00;;
7308;SDS011;3695;53.330;9.876;2022-07-22T11:16:16;6.17;;;2.30;;
7308;SDS011;3695;53.330;9.876;2022-07-22T11:18:46;6.63;;;2.43;;
7308;SDS011;3695;53.330;9.876;2022-07-22T11:21:14;13.00;;;2.73;;
7308;SDS011;3695;53.330;9.876;2022-07-22T11:23:42;3.67;;;2.10;;
7308;SDS011;3695;53.330;9.876;2022-07-22T11:26:10;5.40;;;2.10;;
7308;SDS011;3695;53.330;9.876;2022-07-22T11:28:41;6.57;;;2.07;;
7308;SDS011;3695;53.330;9.876;2022-07-22T11:31:09;7.07;;;1.87;;
7308;SDS011;3695;53.330;9.876;2022-07-22T11:33:39;5.87;;;1.70;;
7308;SDS011;3695;53.330;9.876;2022-07-22T11:36:07;3.77;;;1.80;;
7308;SDS011;3695;53.330;9.876;2022-07-22T11:38:39;5.07;;;1.80;;
7308;SDS011;3695;53.330;9.876;2022-07-22T11:41:10;3.95;;;1.58;;
7308;SDS011;3695;53.330;9.876;2022-07-22T11:43:40;5.43;;;1.83;;
7308;SDS011;3695;53.330;9.876;2022-07-22T11:46:07;6.43;;;1.70;;
7308;SDS011;3695;53.330;9.876;2022-07-22T11:48:34;3.38;;;1.50;;
7308;SDS011;3695;53.330;9.876;2022-07-22T11:51:02;5.28;;;2.17;;
7308;SDS011;3695;53.330;9.876;2022-07-22T11:53:29;4.22;;;1.85;;
7308;SDS011;3695;53.330;9.876;2022-07-22T11:55:56;4.65;;;1.80;;
7308;SDS011;3695;53.330;9.876;2022-07-22T11:58:33;5.57;;;2.10;;
7308;SDS011;3695;53.330;9.876;2022-07-22T12:01:01;3.72;;;2.25;;
7308;SDS011;3695;53.330;9.876;2022-07-22T12:03:29;4.97;;;1.70;;
7308;SDS011;3695;53.330;9.876;2022-07-22T12:05:56;7.50;;;2.05;;
7308;SDS011;3695;53.330;9.876;2022-07-22T12:08:23;4.20;;;1.42;;
7308;SDS011;3695;53.330;9.876;2022-07-22T12:10:50;5.07;;;1.98;;
7308;SDS011;3695;53.330;9.876;2022-07-22T12:13:17;4.65;;;1.80;;
7308;SDS011;3695;53.330;9.876;2022-07-22T12:15:43;5.78;;;1.60;;
7308;SDS011;3695;53.330;9.876;2022-07-22T12:18:21;11.55;;;2.80;;
7308;SDS011;3695;53.330;9.876;2022-07-22T12:20:49;5.97;;;1.90;;
7308;SDS011;3695;53.330;9.876;2022-07-22T12:23:17;3.10;;;1.55;;
7308;SDS011;3695;53.330;9.876;2022-07-22T12:25:53;5.85;;;2.00;;
7308;SDS011;3695;53.330;9.876;2022-07-22T12:28:22;5.85;;;2.05;;
7308;SDS011;3695;53.330;9.876;2022-07-22T12:30:49;5.80;;;1.85;;
7308;SDS011;3695;53.330;9.876;2022-07-22T12:33:18;5.07;;;2.22;;
7308;SDS011;3695;53.330;9.876;2022-07-22T12:35:58;4.53;;;2.03;;
7308;SDS011;3695;53.330;9.876;2022-07-22T12:38:27;6.63;;;1.70;;
7308;SDS011;3695;53.330;9.876;2022-07-22T12:40:54;7.30;;;1.98;;
7308;SDS011;3695;53.330;9.876;2022-07-22T12:43:25;7.10;;;1.90;;
7308;SDS011;3695;53.330;9.876;2022-07-22T12:45:52;7.90;;;2.50;;
7308;SDS011;3695;53.330;9.876;2022-07-22T12:48:19;6.57;;;1.90;;
7308;SDS011;3695;53.330;9.876;2022-07-22T12:50:54;3.00;;;1.77;;
7308;SDS011;3695;53.330;9.876;2022-07-22T12:53:24;8.15;;;3.35;;
7308;SDS011;3695;53.330;9.876;2022-07-22T12:55:55;6.00;;;2.13;;
7308;SDS011;3695;53.330;9.876;2022-07-22T12:58:24;8.57;;;1.80;;
7308;SDS011;3695;53.330;9.876;2022-07-22T13:00:54;7.88;;;2.00;;
7308;SDS011;3695;53.330;9.876;2022-07-22T13:03:22;6.60;;;2.10;;
7308;SDS011;3695;53.330;9.876;2022-07-22T13:05:51;5.80;;;2.00;;
7308;SDS011;3695;53.330;9.876;2022-07-22T13:08:19;5.43;;;2.00;;
7308;SDS011;3695;53.330;9.876;2022-07-22T13:10:47;6.40;;;1.80;;
7308;SDS011;3695;53.330;9.876;2022-07-22T13:13:14;6.50;;;2.15;;
7308;SDS011;3695;53.330;9.876;2022-07-22T13:15:41;5.40;;;1.83;;
7308;SDS011;3695;53.330;9.876;2022-07-22T13:18:07;4.53;;;1.85;;
7308;SDS011;3695;53.330;9.876;2022-07-22T13:20:33;5.55;;;1.90;;
7308;SDS011;3695;53.330;9.876;2022-07-22T13:23:00;7.22;;;2.55;;
7308;SDS011;3695;53.330;9.876;2022-07-22T13:25:27;5.40;;;2.50;;
7308;SDS011;3695;53.330;9.876;2022-07-22T13:27:57;6.57;;;2.47;;
7308;SDS011;3695;53.330;9.876;2022-07-22T13:30:24;7.78;;;2.95;;
7308;SDS011;3695;53.330;9.876;2022-07-22T13:32:51;5.53;;;1.95;;
7308;SDS011;3695;53.330;9.876;2022-07-22T13:35:17;8.63;;;2.47;;
7308;SDS011;3695;53.330;9.876;2022-07-22T13:37:44;6.32;;;2.35;;
7308;SDS011;3695;53.330;9.876;2022-07-22T13:40:12;6.97;;;2.08;;
7308;SDS011;3695;53.330;9.876;2022-07-22T13:42:39;7.50;;;2.10;;
7308;SDS011;3695;53.330;9.876;2022-07-22T13:45:08;3.53;;;1.90;;
7308;SDS011;3695;53.330;9.876;2022-07-22T13:47:36;6.47;;;2.65;;
7308;SDS011;3695;53.330;9.876;2022-07-22T13:50:05;5.68;;;2.10;;
7308;SDS011;3695;53.330;9.876;2022-07-22T13:52:33;2.92;;;1.80;;
7308;SDS011;3695;53.330;9.876;2022-07-22T13:54:59;4.68;;;1.95;;
7308;SDS011;3695;53.330;9.876;2022-07-22T13:57:26;6.75;;;1.92;;
7308;SDS011;3695;53.330;9.876;2022-07-22T13:59:53;5.18;;;2.00;;
7308;SDS011;3695;53.330;9.876;2022-07-22T14:02:22;5.10;;;2.13;;
7308;SDS011;3695;53.330;9.876;2022-07-22T14:04:48;5.75;;;1.98;;
7308;SDS011;3695;53.330;9.876;2022-07-22T14:07:15;6.38;;;2.30;;
7308;SDS011;3695;53.330;9.876;2022-07-22T14:09:42;6.93;;;2.17;;
7308;SDS011;3695;53.330;9.876;2022-07-22T14:12:08;5.55;;;1.98;;
7308;SDS011;3695;53.330;9.876;2022-07-22T14:14:35;5.00;;;2.25;;
7308;SDS011;3695;53.330;9.876;2022-07-22T14:17:01;3.78;;;1.60;;
7308;SDS011;3695;53.330;9.876;2022-07-22T14:19:29;6.03;;;1.98;;
7308;SDS011;3695;53.330;9.876;2022-07-22T14:21:56;4.22;;;1.90;;
7308;SDS011;3695;53.330;9.876;2022-07-22T14:24:23;2.85;;;1.52;;
7308;SDS011;3695;53.330;9.876;2022-07-22T14:26:51;3.60;;;1.40;;
7308;SDS011;3695;53.330;9.876;2022-07-22T14:29:17;4.93;;;1.73;;
7308;SDS011;3695;53.330;9.876;2022-07-22T14:31:46;4.88;;;1.40;;
7308;SDS011;3695;53.330;9.876;2022-07-22T14:34:13;3.72;;;1.95;;
7308;SDS011;3695;53.330;9.876;2022-07-22T14:36:41;4.97;;;1.67;;
7308;SDS011;3695;53.330;9.876;2022-07-22T14:39:07;4.68;;;1.50;;
7308;SDS011;3695;53.330;9.876;2022-07-22T14:41:35;5.65;;;1.48;;
7308;SDS011;3695;53.330;9.876;2022-07-22T14:44:02;6.28;;;2.33;;
7308;SDS011;3695;53.330;9.876;2022-07-22T14:46:29;2.42;;;1.30;;
7308;SDS011;3695;53.330;9.876;2022-07-22T14:48:55;4.78;;;1.63;;
7308;SDS011;3695;53.330;9.876;2022-07-22T14:51:22;2.47;;;1.40;;
7308;SDS011;3695;53.330;9.876;2022-07-22T14:53:51;5.80;;;1.63;;
7308;SDS011;3695;53.330;9.876;2022-07-22T14:56:18;5.50;;;2.22;;
7308;SDS011;3695;53.330;9.876;2022-07-22T14:58:45;2.10;;;1.27;;
7308;SDS011;3695;53.330;9.876;2022-07-22T15:01:11;6.75;;;2.15;;
7308;SDS011;3695;53.330;9.876;2022-07-22T15:03:38;5.18;;;1.60;;
7308;SDS011;3695;53.330;9.876;2022-07-22T15:06:05;4.82;;;1.63;;
7308;SDS011;3695;53.330;9.876;2022-07-22T15:08:31;6.47;;;1.60;;
7308;SDS011;3695;53.330;9.876;2022-07-22T15:10:59;3.72;;;1.60;;
7308;SDS011;3695;53.330;9.876;2022-07-22T15:13:26;5.32;;;1.73;;
7308;SDS011;3695;53.330;9.876;2022-07-22T15:15:53;5.72;;;1.98;;
7308;SDS011;3695;53.330;9.876;2022-07-22T15:18:20;5.60;;;1.85;;
7308;SDS011;3695;53.330;9.876;2022-07-22T15:20:47;5.65;;;1.83;;